Time;durP1;ratioP1;P1;durP2;ratioP2;P2;SDS_P1;SDS_P2;PMS_P1;PMS_P2;Temp;Humidity;BMP_temperature;BMP_pressure;BME280_temperature;BME280_humidity;BME280_pressure;Samples;Min_cycle;Max_cycle;Signal;HPM_P1;HPM_P2
2022/09/02 00:02:16;;;;;;;5.22;1.40;;;;;;;;;;4951838;28;20460;-75
2022/09/02 00:04:42;;;;;;;7.78;1.30;;;;;;;;;;4951503;29;20322;-75
2022/09/02 00:07:09;;;;;;;1.80;1.00;;;;;;;;;;4951696;29;20491;-74
2022/09/02 00:09:36;;;;;;;3.85;1.23;;;;;;;;;;4959961;28;20028;-74
2022/09/02 00:12:02;;;;;;;2.38;1.40;;;;;;;;;;4963292;29;20034;-75
2022/09/02 00:14:30;;;;;;;4.35;1.55;;;;;;;;;;4963825;28;20039;-75
2022/09/02 00:16:59;;;;;;;6.78;1.25;;;;;;;;;;4962391;29;20362;-75
2022/09/02 00:19:25;;;;;;;3.40;1.10;;;;;;;;;;4963055;29;20110;-76
2022/09/02 00:21:52;;;;;;;2.97;1.30;;;;;;;;;;4961575;28;20034;-75
2022/09/02 00:24:19;;;;;;;2.90;1.20;;;;;;;;;;4956790;28;20114;-75
2022/09/02 00:26:45;;;;;;;2.85;1.13;;;;;;;;;;4951892;28;20039;-75
2022/09/02 00:29:13;;;;;;;4.22;1.25;;;;;;;;;;4951876;29;20031;-75
2022/09/02 00:31:41;;;;;;;3.55;1.00;;;;;;;;;;4950416;29;20031;-75
2022/09/02 00:34:08;;;;;;;2.47;1.00;;;;;;;;;;4951928;28;20435;-75
2022/09/02 00:36:34;;;;;;;1.30;1.10;;;;;;;;;;4951759;28;20038;-76
2022/09/02 00:39:00;;;;;;;3.28;1.23;;;;;;;;;;4952044;29;20094;-75
2022/09/02 00:41:27;;;;;;;4.18;1.30;;;;;;;;;;4951647;29;20028;-75
2022/09/02 00:43:55;;;;;;;2.88;1.30;;;;;;;;;;4950540;28;20031;-75
2022/09/02 00:46:23;;;;;;;4.13;1.20;;;;;;;;;;4951292;28;20111;-76
2022/09/02 00:48:58;;;;;;;2.47;1.00;;;;;;;;;;4952169;29;20023;-74
2022/09/02 00:51:24;;;;;;;;;;;;;;;;;;4951952;29;20114;-75
2022/09/02 00:53:50;;;;;;;2.30;1.40;;;;;;;;;;4950635;28;19949;-75
2022/09/02 00:56:19;;;;;;;2.38;1.10;;;;;;;;;;4951978;28;20028;-75
2022/09/02 00:58:46;;;;;;;2.45;1.33;;;;;;;;;;4955973;28;20540;-75
2022/09/02 01:01:12;;;;;;;2.92;1.40;;;;;;;;;;4957145;29;20057;-75
2022/09/02 01:03:40;;;;;;;3.25;1.50;;;;;;;;;;4952586;28;20080;-75
2022/09/02 01:06:06;;;;;;;4.93;2.58;;;;;;;;;;4954936;29;20080;-76
2022/09/02 01:08:34;;;;;;;8.88;5.10;;;;;;;;;;4955349;29;20028;-74
2022/09/02 01:11:01;;;;;;;5.93;2.75;;;;;;;;;;4953427;29;20024;-74
2022/09/02 01:13:28;;;;;;;3.85;2.00;;;;;;;;;;4955059;28;20493;-75
2022/09/02 01:15:56;;;;;;;5.85;2.30;;;;;;;;;;4961805;28;20562;-74
2022/09/02 01:18:24;;;;;;;2.45;1.50;;;;;;;;;;4959762;28;20023;-75
2022/09/02 01:20:50;;;;;;;2.10;1.23;;;;;;;;;;4960215;29;20103;-75
2022/09/02 01:23:17;;;;;;;2.95;1.30;;;;;;;;;;4963616;28;20465;-76
2022/09/02 01:25:43;;;;;;;4.13;1.17;;;;;;;;;;4963862;29;20027;-76
2022/09/02 01:28:11;;;;;;;2.63;1.20;;;;;;;;;;4961996;29;20396;-75
2022/09/02 01:30:40;;;;;;;8.02;1.10;;;;;;;;;;4959552;28;20030;-75
2022/09/02 01:33:06;;;;;;;2.83;1.00;;;;;;;;;;4954212;28;20053;-76
2022/09/02 01:35:32;;;;;;;2.38;1.20;;;;;;;;;;4953951;29;20024;-76
2022/09/02 01:37:58;;;;;;;1.92;1.17;;;;;;;;;;4952957;28;20027;-74
2022/09/02 01:40:26;;;;;;;2.50;1.35;;;;;;;;;;4953686;29;20031;-75
2022/09/02 01:42:57;;;;;;;2.17;1.10;;;;;;;;;;4954224;28;20035;-76
2022/09/02 01:45:24;;;;;;;2.00;1.20;;;;;;;;;;4954402;28;20031;-75
2022/09/02 01:47:50;;;;;;;3.38;1.30;;;;;;;;;;4955680;28;20027;-75
2022/09/02 01:50:17;;;;;;;3.97;1.40;;;;;;;;;;4957478;28;20031;-74
2022/09/02 01:52:43;;;;;;;1.40;1.08;;;;;;;;;;4968766;28;20087;-74
2022/09/02 01:55:09;;;;;;;3.55;1.67;;;;;;;;;;4978252;28;20042;-75
2022/09/02 01:57:35;;;;;;;4.22;1.27;;;;;;;;;;4978715;28;20023;-75
2022/09/02 02:00:02;;;;;;;4.03;1.83;;;;;;;;;;4978735;28;20027;-75
2022/09/02 02:02:28;;;;;;;2.00;1.02;;;;;;;;;;4976865;28;20035;-75
2022/09/02 02:04:54;;;;;;;2.97;1.30;;;;;;;;;;4974221;29;20051;-74
2022/09/02 02:07:21;;;;;;;2.63;1.40;;;;;;;;;;4975996;28;20061;-74
2022/09/02 02:09:47;;;;;;;3.63;1.17;;;;;;;;;;4975275;29;20027;-75
2022/09/02 02:12:13;;;;;;;1.63;1.17;;;;;;;;;;4973978;29;20035;-75
2022/09/02 02:14:39;;;;;;;6.13;1.20;;;;;;;;;;4970856;28;20097;-75
2022/09/02 02:17:05;;;;;;;2.83;1.30;;;;;;;;;;4972835;29;20027;-76
2022/09/02 02:19:31;;;;;;;2.65;1.00;;;;;;;;;;4969394;28;20043;-74
2022/09/02 02:21:57;;;;;;;2.55;1.23;;;;;;;;;;4968189;28;20078;-76
2022/09/02 02:24:23;;;;;;;4.15;1.48;;;;;;;;;;4955965;28;20032;-75
2022/09/02 02:26:49;;;;;;;2.45;1.15;;;;;;;;;;4945786;29;20028;-77
2022/09/02 02:29:15;;;;;;;1.67;1.13;;;;;;;;;;4956285;28;20441;-75
2022/09/02 02:31:41;;;;;;;3.17;1.63;;;;;;;;;;4954099;28;20081;-76
2022/09/02 02:34:09;;;;;;;2.35;1.65;;;;;;;;;;4953580;28;20031;-75
2022/09/02 02:36:35;;;;;;;3.80;1.35;;;;;;;;;;4953665;28;20098;-74
2022/09/02 02:39:02;;;;;;;4.40;1.63;;;;;;;;;;4953421;28;20053;-77
2022/09/02 02:41:29;;;;;;;2.78;1.30;;;;;;;;;;4953262;28;20494;-76
2022/09/02 02:43:55;;;;;;;3.83;1.67;;;;;;;;;;4953246;28;20507;-76
2022/09/02 02:46:21;;;;;;;3.90;1.70;;;;;;;;;;4953141;28;20031;-76
2022/09/02 02:48:47;;;;;;;2.38;1.45;;;;;;;;;;4953366;28;20447;-75
2022/09/02 02:51:13;;;;;;;2.00;1.13;;;;;;;;;;4953250;28;20042;-76
2022/09/02 02:53:40;;;;;;;6.70;1.65;;;;;;;;;;4953392;28;20114;-76
2022/09/02 02:56:06;;;;;;;5.07;1.30;;;;;;;;;;4953007;28;20028;-76
2022/09/02 02:58:32;;;;;;;2.90;1.30;;;;;;;;;;4953323;28;20023;-76
2022/09/02 03:00:59;;;;;;;3.88;1.40;;;;;;;;;;4953635;28;20046;-75
2022/09/02 03:03:26;;;;;;;7.78;1.60;;;;;;;;;;4954303;28;20384;-76
2022/09/02 03:05:52;;;;;;;4.80;1.45;;;;;;;;;;4964309;28;20043;-75
2022/09/02 03:08:19;;;;;;;3.28;1.50;;;;;;;;;;4955564;28;20079;-75
2022/09/02 03:10:46;;;;;;;2.70;1.52;;;;;;;;;;4952910;28;20030;-75
2022/09/02 03:13:13;;;;;;;3.05;1.58;;;;;;;;;;4953094;28;20042;-76
2022/09/02 03:15:39;;;;;;;3.05;1.20;;;;;;;;;;4952911;28;20481;-76
2022/09/02 03:18:05;;;;;;;2.83;1.30;;;;;;;;;;4952769;28;20102;-75
2022/09/02 03:20:31;;;;;;;1.25;1.08;;;;;;;;;;4953082;28;20023;-76
2022/09/02 03:22:58;;;;;;;4.55;1.80;;;;;;;;;;4955764;28;20036;-74
2022/09/02 03:25:24;;;;;;;5.20;1.60;;;;;;;;;;4954006;28;20062;-77
2022/09/02 03:27:50;;;;;;;5.60;1.48;;;;;;;;;;4953047;28;20023;-76
2022/09/02 03:30:19;;;;;;;2.92;1.50;;;;;;;;;;4952999;28;20457;-76
2022/09/02 03:32:44;;;;;;;1.73;1.30;;;;;;;;;;4953721;28;20028;-75
2022/09/02 03:35:12;;;;;;;4.13;1.60;;;;;;;;;;4960786;28;20074;-76
2022/09/02 03:37:38;;;;;;;5.45;1.60;;;;;;;;;;4954645;28;20020;-76
2022/09/02 03:40:12;;;;;;;3.20;1.35;;;;;;;;;;4952840;28;20488;-76
2022/09/02 03:42:39;;;;;;;2.45;1.50;;;;;;;;;;4952920;28;20468;-77
2022/09/02 03:45:06;;;;;;;1.60;1.20;;;;;;;;;;4952899;28;20073;-76
2022/09/02 03:47:32;;;;;;;2.67;1.42;;;;;;;;;;4952325;28;20164;-75
2022/09/02 03:49:58;;;;;;;3.70;1.15;;;;;;;;;;4951353;28;20401;-76
2022/09/02 03:52:25;;;;;;;2.10;1.15;;;;;;;;;;4952190;28;20027;-76
2022/09/02 03:54:51;;;;;;;3.60;1.35;;;;;;;;;;4952925;28;20030;-76
2022/09/02 03:57:19;;;;;;;2.42;1.35;;;;;;;;;;4952907;28;20031;-77
2022/09/02 03:59:45;;;;;;;2.35;1.02;;;;;;;;;;4952870;28;20050;-76
2022/09/02 04:02:11;;;;;;;4.70;2.13;;;;;;;;;;4951307;28;20038;-76
2022/09/02 04:04:37;;;;;;;6.95;2.72;;;;;;;;;;4952757;28;20531;-82
2022/09/02 04:07:03;;;;;;;3.40;1.42;;;;;;;;;;4953983;28;20102;-76
2022/09/02 04:09:29;;;;;;;2.70;1.52;;;;;;;;;;4953273;28;20031;-75
2022/09/02 04:11:55;;;;;;;4.03;1.85;;;;;;;;;;4957278;28;20027;-76
2022/09/02 04:14:21;;;;;;;4.25;1.50;;;;;;;;;;4952285;28;20039;-76
2022/09/02 04:16:47;;;;;;;7.30;1.50;;;;;;;;;;4952502;28;20027;-76
2022/09/02 04:19:13;;;;;;;6.97;2.30;;;;;;;;;;4952760;28;20034;-76
2022/09/02 04:21:40;;;;;;;3.72;1.92;;;;;;;;;;4952141;28;20028;-76
2022/09/02 04:24:08;;;;;;;2.58;1.52;;;;;;;;;;4952782;28;20046;-75
2022/09/02 04:26:34;;;;;;;5.35;1.90;;;;;;;;;;4952883;28;20369;-78
2022/09/02 04:29:00;;;;;;;3.22;1.80;;;;;;;;;;4952969;28;20124;-76
2022/09/02 04:31:28;;;;;;;7.07;3.22;;;;;;;;;;4952909;28;20036;-77
2022/09/02 04:33:55;;;;;;;3.95;1.60;;;;;;;;;;4952846;28;20089;-76
2022/09/02 04:36:22;;;;;;;3.22;1.75;;;;;;;;;;4952162;28;20023;-77
2022/09/02 04:38:48;;;;;;;4.28;1.60;;;;;;;;;;4951359;28;20050;-76
2022/09/02 04:41:18;;;;;;;7.22;1.88;;;;;;;;;;4953925;28;20027;-75
2022/09/02 04:43:44;;;;;;;7.40;1.63;;;;;;;;;;4953448;28;20084;-73
2022/09/02 04:46:11;;;;;;;7.88;2.70;;;;;;;;;;4953300;28;20067;-75
2022/09/02 04:48:38;;;;;;;8.65;2.53;;;;;;;;;;4951739;28;20084;-75
2022/09/02 04:51:09;;;;;;;2.72;1.85;;;;;;;;;;4951439;28;20407;-74
2022/09/02 04:53:35;;;;;;;2.83;1.50;;;;;;;;;;4954143;28;20054;-74
2022/09/02 04:56:05;;;;;;;4.45;1.67;;;;;;;;;;4956376;28;20081;-75
2022/09/02 04:58:31;;;;;;;14.15;7.30;;;;;;;;;;4955155;28;20028;-73
2022/09/02 05:00:57;;;;;;;10.02;6.28;;;;;;;;;;4956593;28;20045;-77
2022/09/02 05:03:23;;;;;;;13.15;5.80;;;;;;;;;;4963539;28;20027;-75
2022/09/02 05:06:00;;;;;;;9.98;3.78;;;;;;;;;;4966517;28;20369;-74
2022/09/02 05:08:26;;;;;;;9.70;3.45;;;;;;;;;;4963385;28;20031;-76
2022/09/02 05:10:52;;;;;;;10.65;5.93;;;;;;;;;;4958961;28;20030;-76
2022/09/02 05:13:18;;;;;;;8.80;5.65;;;;;;;;;;4960310;28;20051;-74
2022/09/02 05:15:44;;;;;;;8.75;5.13;;;;;;;;;;4961272;28;20031;-74
2022/09/02 05:18:11;;;;;;;20.85;8.65;;;;;;;;;;4962038;28;20491;-75
2022/09/02 05:20:42;;;;;;;5.90;2.47;;;;;;;;;;4962334;28;20074;-75
2022/09/02 05:23:09;;;;;;;6.10;2.00;;;;;;;;;;4961678;28;20102;-75
2022/09/02 05:25:36;;;;;;;7.53;2.45;;;;;;;;;;4963279;28;20031;-76
2022/09/02 05:28:02;;;;;;;6.80;3.60;;;;;;;;;;4956255;28;20066;-75
2022/09/02 05:30:28;;;;;;;6.43;2.38;;;;;;;;;;4954233;28;20045;-76
2022/09/02 05:32:54;;;;;;;3.17;2.13;;;;;;;;;;4952897;28;20023;-75
2022/09/02 05:35:20;;;;;;;5.65;2.70;;;;;;;;;;4952703;28;20027;-76
2022/09/02 05:37:46;;;;;;;11.20;3.28;;;;;;;;;;4953887;28;20038;-76
2022/09/02 05:40:12;;;;;;;5.25;2.78;;;;;;;;;;4953383;28;20023;-75
2022/09/02 05:42:39;;;;;;;7.00;3.13;;;;;;;;;;4957525;28;20588;-76
2022/09/02 05:45:05;;;;;;;4.65;2.47;;;;;;;;;;4954265;28;20043;-76
2022/09/02 05:47:33;;;;;;;4.45;2.30;;;;;;;;;;4954174;28;20035;-79
2022/09/02 05:50:00;;;;;;;8.23;3.10;;;;;;;;;;4955638;28;20031;-74
2022/09/02 05:52:26;;;;;;;21.50;5.47;;;;;;;;;;4951730;28;20030;-76
2022/09/02 05:54:53;;;;;;;6.28;2.90;;;;;;;;;;4951287;28;20027;-75
2022/09/02 05:57:19;;;;;;;8.85;2.90;;;;;;;;;;4951456;28;20023;-76
2022/09/02 05:59:47;;;;;;;8.82;2.85;;;;;;;;;;4955164;28;20026;-76
2022/09/02 06:02:14;;;;;;;5.80;3.03;;;;;;;;;;4955774;29;20399;-75
2022/09/02 06:04:41;;;;;;;3.88;2.13;;;;;;;;;;4960890;28;20093;-77
2022/09/02 06:07:07;;;;;;;8.20;2.58;;;;;;;;;;4960095;28;20423;-73
2022/09/02 06:09:33;;;;;;;5.70;2.30;;;;;;;;;;4959955;28;20031;-78
2022/09/02 06:11:59;;;;;;;5.63;2.70;;;;;;;;;;4960778;28;20108;-77
2022/09/02 06:14:25;;;;;;;4.20;2.08;;;;;;;;;;4971428;23;20054;-75
2022/09/02 06:16:53;;;;;;;5.18;2.08;;;;;;;;;;4954577;28;20038;-75
2022/09/02 06:19:19;;;;;;;10.85;2.58;;;;;;;;;;4953290;28;20023;-75
2022/09/02 06:21:45;;;;;;;9.95;2.10;;;;;;;;;;4955719;29;20043;-74
2022/09/02 06:24:12;;;;;;;8.40;2.40;;;;;;;;;;4953332;29;20038;-76
2022/09/02 06:26:38;;;;;;;4.47;2.30;;;;;;;;;;4952730;28;20101;-74
2022/09/02 06:29:04;;;;;;;4.03;1.83;;;;;;;;;;4954091;29;20033;-75
2022/09/02 06:31:30;;;;;;;6.03;1.98;;;;;;;;;;4954160;29;20040;-74
2022/09/02 06:33:57;;;;;;;6.20;2.20;;;;;;;;;;4954476;28;20079;-74
2022/09/02 06:36:24;;;;;;;6.30;2.20;;;;;;;;;;4954080;29;20484;-76
2022/09/02 06:38:51;;;;;;;9.10;2.08;;;;;;;;;;4954936;28;20087;-75
2022/09/02 06:41:19;;;;;;;4.00;2.13;;;;;;;;;;4952939;28;20403;-75
2022/09/02 06:43:45;;;;;;;8.73;2.20;;;;;;;;;;4953831;28;20023;-76
2022/09/02 06:46:18;;;;;;;11.80;2.97;;;;;;;;;;4953873;28;20404;-75
2022/09/02 06:48:44;;;;;;;9.55;3.72;;;;;;;;;;4953737;29;20027;-76
2022/09/02 06:51:15;;;;;;;4.35;1.90;;;;;;;;;;4953499;29;20027;-74
2022/09/02 06:53:41;;;;;;;3.67;1.67;;;;;;;;;;4952027;28;20023;-76
2022/09/02 06:56:09;;;;;;;4.80;1.63;;;;;;;;;;4953222;28;20034;-74
2022/09/02 06:58:35;;;;;;;4.35;1.50;;;;;;;;;;4952005;28;20031;-74
2022/09/02 07:01:01;;;;;;;2.58;1.40;;;;;;;;;;4952014;28;20019;-74
2022/09/02 07:06:11;;;;;;;2.97;1.85;;;;;;;;;;4953287;28;20563;-75
2022/09/02 07:08:38;;;;;;;6.18;1.85;;;;;;;;;;4953968;29;20365;-76
2022/09/02 07:11:05;;;;;;;10.20;1.88;;;;;;;;;;4952581;28;20024;-75
2022/09/02 07:13:31;;;;;;;8.88;4.03;;;;;;;;;;4953289;28;20066;-74
2022/09/02 07:15:57;;;;;;;8.07;2.75;;;;;;;;;;4953757;29;20472;-76
2022/09/02 07:18:23;;;;;;;12.00;3.08;;;;;;;;;;4955903;29;20042;-74
2022/09/02 07:20:49;;;;;;;7.18;3.00;;;;;;;;;;4957134;29;20023;-75
2022/09/02 07:23:16;;;;;;;8.13;3.00;;;;;;;;;;4957917;28;20031;-74
2022/09/02 07:25:42;;;;;;;6.07;2.55;;;;;;;;;;4970246;28;20031;-74
2022/09/02 07:28:09;;;;;;;6.05;2.88;;;;;;;;;;4965788;29;20055;-73
2022/09/02 07:30:35;;;;;;;9.13;3.70;;;;;;;;;;4958548;28;20031;-74
2022/09/02 07:33:01;;;;;;;8.30;1.88;;;;;;;;;;4952355;28;20042;-74
2022/09/02 07:35:28;;;;;;;2.20;1.00;;;;;;;;;;4952516;29;20023;-75
2022/09/02 07:37:54;;;;;;;4.38;2.00;;;;;;;;;;4952900;29;20024;-75
2022/09/02 07:40:20;;;;;;;4.25;1.20;;;;;;;;;;4952825;28;20080;-75
2022/09/02 07:42:46;;;;;;;1.50;1.15;;;;;;;;;;4953673;28;20077;-74
2022/09/02 07:45:12;;;;;;;3.72;1.77;;;;;;;;;;4961814;28;20397;-75
2022/09/02 07:47:38;;;;;;;4.40;1.10;;;;;;;;;;4966435;28;20094;-74
2022/09/02 07:50:05;;;;;;;1.70;1.00;;;;;;;;;;4960501;28;20484;-75
2022/09/02 07:52:31;;;;;;;2.05;1.05;;;;;;;;;;4956832;28;20062;-75
2022/09/02 07:54:57;;;;;;;3.17;1.33;;;;;;;;;;4953926;28;20027;-76
2022/09/02 07:57:23;;;;;;;5.10;1.17;;;;;;;;;;4953126;28;20491;-75
2022/09/02 07:59:49;;;;;;;4.05;1.00;;;;;;;;;;4945060;28;20028;-74
2022/09/02 08:02:17;;;;;;;4.68;1.38;;;;;;;;;;4941450;29;20065;-76
2022/09/02 08:04:43;;;;;;;3.05;1.10;;;;;;;;;;4953687;28;20399;-75
2022/09/02 08:07:09;;;;;;;2.25;1.02;;;;;;;;;;4958039;28;20038;-75
2022/09/02 08:09:35;;;;;;;2.35;0.70;;;;;;;;;;4940794;29;20035;-76
2022/09/02 08:12:01;;;;;;;3.08;1.13;;;;;;;;;;4952765;29;20035;-75
2022/09/02 08:14:28;;;;;;;1.90;1.13;;;;;;;;;;4935015;29;20039;-75
2022/09/02 08:16:55;;;;;;;2.58;1.05;;;;;;;;;;4952261;29;20029;-74
2022/09/02 08:19:21;;;;;;;4.63;0.95;;;;;;;;;;4952388;29;20031;-75
2022/09/02 08:21:47;;;;;;;3.13;1.08;;;;;;;;;;4951908;29;20534;-74
2022/09/02 08:24:13;;;;;;;4.35;1.10;;;;;;;;;;4951056;28;20023;-74
2022/09/02 08:26:39;;;;;;;3.30;1.08;;;;;;;;;;4952038;28;20051;-75
2022/09/02 08:29:05;;;;;;;4.57;1.13;;;;;;;;;;4952293;29;20059;-74
2022/09/02 08:31:32;;;;;;;2.42;1.10;;;;;;;;;;4952448;28;20510;-75
2022/09/02 08:33:58;;;;;;;2.67;1.20;;;;;;;;;;4954982;28;20150;-74
2022/09/02 08:36:25;;;;;;;4.55;2.05;;;;;;;;;;4951514;29;20081;-76
2022/09/02 08:38:51;;;;;;;1.90;1.10;;;;;;;;;;4952574;29;20058;-74
2022/09/02 08:41:22;;;;;;;2.15;1.20;;;;;;;;;;4934274;29;20055;-76
2022/09/02 08:43:49;;;;;;;6.90;1.27;;;;;;;;;;4952023;28;20069;-75
2022/09/02 08:46:16;;;;;;;3.20;0.88;;;;;;;;;;4951886;29;20038;-75
2022/09/02 08:48:44;;;;;;;3.45;1.00;;;;;;;;;;4952909;28;20035;-76
2022/09/02 08:51:12;;;;;;;4.13;0.95;;;;;;;;;;4952623;29;20030;-75
2022/09/02 08:53:51;;;;;;;6.13;1.00;;;;;;;;;;4953257;28;20030;-75
2022/09/02 08:56:17;;;;;;;4.80;0.98;;;;;;;;;;4936858;29;20030;-76
2022/09/02 08:58:46;;;;;;;2.50;0.80;;;;;;;;;;4955486;28;20024;-75
2022/09/02 09:01:17;;;;;;;2.70;0.88;;;;;;;;;;4954272;29;20444;-75
2022/09/02 09:03:50;;;;;;;4.43;0.90;;;;;;;;;;4952515;28;20069;-76
2022/09/02 09:06:20;;;;;;;2.05;1.13;;;;;;;;;;4953115;28;20019;-75
2022/09/02 09:08:50;;;;;;;3.67;1.02;;;;;;;;;;4952292;29;20032;-76
2022/09/02 09:11:24;;;;;;;3.60;0.88;;;;;;;;;;4934949;29;20023;-76
2022/09/02 09:14:05;;;;;;;3.00;1.67;;;;;;;;;;4951734;28;20078;-74
2022/09/02 09:17:00;;;;;;;4.00;1.13;;;;;;;;;;4951370;28;20034;-75
2022/09/02 09:19:26;;;;;;;;;;;;;;;;;;4960432;28;20399;-76
2022/09/02 09:21:53;;;;;;;6.15;1.33;;;;;;;;;;4953028;28;20006;-77
2022/09/02 09:24:39;;;;;;;3.35;0.95;;;;;;;;;;4954121;28;20042;-76
2022/09/02 09:27:12;;;;;;;5.90;0.88;;;;;;;;;;4937179;28;20471;-75
2022/09/02 09:29:38;;;;;;;2.05;0.90;;;;;;;;;;4958456;29;20047;-77
2022/09/02 09:32:08;;;;;;;4.47;0.93;;;;;;;;;;4955544;28;20447;-76
2022/09/02 09:34:51;;;;;;;0.60;0.60;;;;;;;;;;4953032;28;20031;-75
2022/09/02 09:37:28;;;;;;;9.40;0.97;;;;;;;;;;4955184;28;20031;-75
2022/09/02 09:39:54;;;;;;;2.42;1.00;;;;;;;;;;4955176;28;20027;-75
2022/09/02 09:42:29;;;;;;;2.90;0.80;;;;;;;;;;4955393;29;20029;-76
2022/09/02 09:44:55;;;;;;;3.95;2.17;;;;;;;;;;4967759;28;20031;-73
2022/09/02 09:47:24;;;;;;;4.05;0.93;;;;;;;;;;4976484;28;20035;-75
2022/09/02 09:49:51;;;;;;;3.10;0.98;;;;;;;;;;4977825;28;20078;-74
2022/09/02 09:52:30;;;;;;;2.22;1.10;;;;;;;;;;4975217;28;20041;-74
2022/09/02 09:55:23;;;;;;;3.97;0.93;;;;;;;;;;4974755;28;20011;-73
2022/09/02 09:57:49;;;;;;;3.35;1.00;;;;;;;;;;4963691;28;20043;-74
2022/09/02 10:00:20;;;;;;;4.22;0.93;;;;;;;;;;4954614;29;20387;-75
2022/09/02 10:02:51;;;;;;;7.07;1.30;;;;;;;;;;4954657;28;20019;-75
2022/09/02 10:05:19;;;;;;;2.65;1.05;;;;;;;;;;4955112;29;20038;-74
2022/09/02 10:07:52;;;;;;;3.92;1.00;;;;;;;;;;4951875;28;20023;-76
2022/09/02 10:10:22;;;;;;;6.80;1.08;;;;;;;;;;4936155;28;20024;-75
2022/09/02 10:12:50;;;;;;;1.85;0.90;;;;;;;;;;4948988;28;20108;-75
2022/09/02 10:15:19;;;;;;;3.60;0.90;;;;;;;;;;4945385;28;20110;-74
2022/09/02 10:17:56;;;;;;;3.88;0.90;;;;;;;;;;4949758;28;20102;-76
2022/09/02 10:20:40;;;;;;;5.63;1.10;;;;;;;;;;4952574;28;20361;-75
2022/09/02 10:23:06;;;;;;;2.45;0.80;;;;;;;;;;4949245;28;20027;-75
2022/09/02 10:25:51;;;;;;;1.40;0.90;;;;;;;;;;4952679;29;20041;-77
2022/09/02 10:28:17;;;;;;;4.45;1.58;;;;;;;;;;4951986;28;20467;-75
2022/09/02 10:30:46;;;;;;;5.35;1.10;;;;;;;;;;4951588;28;20027;-75
2022/09/02 10:33:21;;;;;;;2.85;0.98;;;;;;;;;;4951787;28;20036;-75
2022/09/02 10:35:53;;;;;;;4.50;1.08;;;;;;;;;;4937084;28;20023;-75
2022/09/02 10:38:38;;;;;;;1.65;0.60;;;;;;;;;;4937313;28;20038;-75
2022/09/02 10:41:04;;;;;;;;;;;;;;;;;;4935579;28;20024;-74
2022/09/02 10:43:47;;;;;;;2.78;0.88;;;;;;;;;;4937479;28;19913;-74
2022/09/02 10:46:16;;;;;;;1.70;0.70;;;;;;;;;;4937588;29;20094;-76
2022/09/02 10:49:02;;;;;;;4.70;1.00;;;;;;;;;;4940385;29;20059;-75
2022/09/02 10:51:36;;;;;;;3.83;0.77;;;;;;;;;;4941306;29;20111;-75
2022/09/02 10:54:21;;;;;;;4.07;0.70;;;;;;;;;;4937991;29;20416;-75
2022/09/02 10:56:48;;;;;;;;;;;;;;;;;;4937952;29;20031;-76
2022/09/02 10:59:18;;;;;;;2.17;0.93;;;;;;;;;;4954031;28;19941;-75
2022/09/02 11:01:46;;;;;;;1.80;0.98;;;;;;;;;;4952965;29;20482;-75
2022/09/02 11:04:16;;;;;;;1.55;0.80;;;;;;;;;;4952929;28;20163;-75
2022/09/02 11:06:43;;;;;;;4.03;1.10;;;;;;;;;;4953469;29;20034;-77
2022/09/02 11:09:13;;;;;;;3.53;1.20;;;;;;;;;;4953309;29;20043;-75
2022/09/02 11:11:41;;;;;;;4.47;0.90;;;;;;;;;;4953203;28;20042;-75
2022/09/02 11:14:16;;;;;;;3.70;0.80;;;;;;;;;;4953149;28;20118;-74
2022/09/02 11:16:46;;;;;;;0.90;0.80;;;;;;;;;;4952783;28;20023;-75
2022/09/02 11:19:26;;;;;;;7.55;1.08;;;;;;;;;;4953390;29;20035;-74
2022/09/02 11:22:08;;;;;;;1.92;0.90;;;;;;;;;;4936298;28;20176;-77
2022/09/02 11:24:46;;;;;;;4.50;1.33;;;;;;;;;;4936567;28;20118;-76
2022/09/02 11:27:17;;;;;;;3.38;1.40;;;;;;;;;;4954467;29;20066;-75
2022/09/02 11:29:57;;;;;;;4.68;0.95;;;;;;;;;;4969343;29;20020;-74
2022/09/02 11:32:29;;;;;;;2.28;1.00;;;;;;;;;;4968751;29;20028;-77
2022/09/02 11:34:56;;;;;;;1.35;0.80;;;;;;;;;;4953184;28;20086;-74
2022/09/02 11:37:36;;;;;;;3.00;1.30;;;;;;;;;;4953987;29;20074;-75
2022/09/02 11:40:05;;;;;;;3.83;1.15;;;;;;;;;;4953230;28;20031;-75
2022/09/02 11:42:50;;;;;;;4.07;1.33;;;;;;;;;;4936004;28;20558;-76
2022/09/02 11:45:26;;;;;;;2.20;1.00;;;;;;;;;;4953353;28;20035;-75
2022/09/02 11:48:04;;;;;;;1.13;1.02;;;;;;;;;;4954560;29;20066;-76
2022/09/02 11:50:30;;;;;;;2.67;1.20;;;;;;;;;;4954974;29;20023;-77
2022/09/02 11:53:15;;;;;;;1.38;1.00;;;;;;;;;;4925222;28;20391;-75
2022/09/02 11:56:13;;;;;;;6.07;0.90;;;;;;;;;;4935778;29;20048;-77
2022/09/02 11:58:44;;;;;;;2.53;0.93;;;;;;;;;;4942668;28;20074;-76
2022/09/02 12:01:22;;;;;;;2.92;1.17;;;;;;;;;;4939127;29;20031;-76
2022/09/02 12:03:52;;;;;;;4.05;0.90;;;;;;;;;;4940154;29;20031;-76
2022/09/02 12:06:19;;;;;;;3.58;1.05;;;;;;;;;;4923780;29;20031;-76
2022/09/02 12:08:46;;;;;;;2.17;0.80;;;;;;;;;;4923568;29;20369;-76
2022/09/02 12:11:31;;;;;;;0.93;0.70;;;;;;;;;;4948377;29;20027;-74
2022/09/02 12:13:58;;;;;;;;;;;;;;;;;;4977139;23;20039;-71
2022/09/02 12:16:35;;;;;;;6.82;1.17;;;;;;;;;;4952325;29;19906;-72
2022/09/02 12:19:06;;;;;;;5.05;1.00;;;;;;;;;;4953975;29;20019;-72
2022/09/02 12:21:34;;;;;;;1.58;1.10;;;;;;;;;;4951987;29;20038;-71
2022/09/02 12:24:03;;;;;;;5.45;0.88;;;;;;;;;;4951495;28;20565;-73
2022/09/02 12:26:28;;;;;;;2.65;1.20;;;;;;;;;;4951883;28;20118;-72
2022/09/02 12:29:13;;;;;;;5.45;1.17;;;;;;;;;;4952095;29;20176;-72
2022/09/02 12:31:41;;;;;;;1.25;0.80;;;;;;;;;;4952023;29;20031;-73
2022/09/02 12:34:20;;;;;;;1.95;0.95;;;;;;;;;;4958940;28;20027;-73
2022/09/02 12:36:58;;;;;;;4.82;0.93;;;;;;;;;;4954598;28;20062;-72
2022/09/02 12:39:27;;;;;;;3.47;0.88;;;;;;;;;;4951611;28;20029;-69
2022/09/02 12:42:11;;;;;;;3.13;0.95;;;;;;;;;;4952813;28;20038;-71
2022/09/02 12:44:47;;;;;;;3.50;0.88;;;;;;;;;;4952303;28;20024;-70
2022/09/02 12:47:19;;;;;;;2.78;0.90;;;;;;;;;;4952298;29;20028;-77
2022/09/02 12:50:03;;;;;;;4.28;0.82;;;;;;;;;;4964020;28;20053;-70
2022/09/02 12:52:35;;;;;;;5.80;0.90;;;;;;;;;;4961448;28;20035;-72
2022/09/02 12:55:10;;;;;;;2.15;0.80;;;;;;;;;;4953747;28;20028;-70
2022/09/02 12:57:40;;;;;;;1.98;1.02;;;;;;;;;;4954760;29;20131;-70
2022/09/02 13:00:06;;;;;;;7.75;0.80;;;;;;;;;;4958639;29;20102;-71
2022/09/02 13:02:35;;;;;;;3.80;0.93;;;;;;;;;;4955993;28;20024;-72
2022/09/02 13:05:01;;;;;;;3.83;0.80;;;;;;;;;;4956354;28;20038;-72
2022/09/02 13:07:46;;;;;;;4.03;0.90;;;;;;;;;;4956546;29;20035;-72
2022/09/02 13:10:31;;;;;;;5.97;1.00;;;;;;;;;;4955688;28;20041;-69
2022/09/02 13:12:59;;;;;;;5.05;0.80;;;;;;;;;;4958443;28;20028;-71
2022/09/02 13:15:44;;;;;;;1.35;0.60;;;;;;;;;;4957308;28;20060;-72
2022/09/02 13:18:13;;;;;;;1.38;0.88;;;;;;;;;;4958006;29;20034;-70
2022/09/02 13:21:02;;;;;;;14.75;1.30;;;;;;;;;;4959352;29;20024;-70
2022/09/02 13:23:50;;;;;;;1.38;0.80;;;;;;;;;;4959378;28;20118;-71
2022/09/02 13:26:24;;;;;;;4.70;2.72;;;;;;;;;;4956152;28;20468;-71
2022/09/02 13:29:05;;;;;;;10.45;4.43;;;;;;;;;;4956124;28;20034;-71
2022/09/02 13:31:31;;;;;;;3.42;1.15;;;;;;;;;;4957917;28;20077;-69
2022/09/02 13:33:57;;;;;;;1.98;1.08;;;;;;;;;;4958932;28;20379;-70
2022/09/02 13:36:37;;;;;;;2.13;0.90;;;;;;;;;;4957904;29;20023;-70
2022/09/02 13:39:10;;;;;;;9.63;3.22;;;;;;;;;;4959913;29;20049;-71
2022/09/02 13:41:36;;;;;;;1.60;0.65;;;;;;;;;;4957421;29;20054;-71
2022/09/02 13:44:10;;;;;;;3.45;0.98;;;;;;;;;;4940450;29;20035;-69
2022/09/02 13:46:43;;;;;;;2.67;0.90;;;;;;;;;;4939331;29;20144;-70
2022/09/02 13:49:17;;;;;;;1.27;0.80;;;;;;;;;;4964979;29;20038;-70
2022/09/02 13:51:44;;;;;;;3.72;0.98;;;;;;;;;;4965172;29;20035;-72
2022/09/02 13:54:10;;;;;;;6.97;1.15;;;;;;;;;;4965608;28;20032;-71
2022/09/02 13:56:36;;;;;;;1.48;1.13;;;;;;;;;;4964294;29;20062;-71
2022/09/02 13:59:02;;;;;;;1.17;0.95;;;;;;;;;;4964753;29;20023;-71
2022/09/02 14:01:33;;;;;;;3.33;1.10;;;;;;;;;;4955103;29;20046;-71
2022/09/02 14:04:00;;;;;;;4.00;1.00;;;;;;;;;;4943665;29;20392;-72
2022/09/02 14:06:30;;;;;;;1.52;0.77;;;;;;;;;;4939242;29;20480;-72
2022/09/02 14:08:58;;;;;;;7.13;1.27;;;;;;;;;;4954399;29;20501;-72
2022/09/02 14:11:25;;;;;;;4.63;1.05;;;;;;;;;;4953359;29;20039;-70
2022/09/02 14:13:51;;;;;;;6.00;0.90;;;;;;;;;;4952705;28;20051;-70
2022/09/02 14:16:25;;;;;;;3.33;0.80;;;;;;;;;;5019227;28;20039;-70
2022/09/02 14:19:13;;;;;;;4.70;0.77;;;;;;;;;;4938975;29;20114;-70
2022/09/02 14:21:49;;;;;;;2.95;0.88;;;;;;;;;;4953681;29;20081;-71
2022/09/02 14:24:19;;;;;;;3.05;1.15;;;;;;;;;;4953101;28;20049;-70
2022/09/02 14:26:46;;;;;;;10.30;1.00;;;;;;;;;;4952910;29;20027;-70
2022/09/02 14:29:14;;;;;;;3.28;0.80;;;;;;;;;;4953156;29;20028;-70
2022/09/02 14:31:41;;;;;;;2.38;1.10;;;;;;;;;;4953736;29;20389;-72
2022/09/02 14:34:31;;;;;;;5.07;1.25;;;;;;;;;;4953403;28;20047;-71
2022/09/02 14:36:57;;;;;;;3.13;1.00;;;;;;;;;;4955875;29;20027;-72
2022/09/02 14:39:23;;;;;;;7.18;1.23;;;;;;;;;;4957872;29;20024;-72
2022/09/02 14:41:50;;;;;;;3.53;1.10;;;;;;;;;;4954104;29;20588;-73
2022/09/02 14:44:35;;;;;;;6.32;1.00;;;;;;;;;;4955232;28;20038;-70
2022/09/02 14:47:05;;;;;;;3.00;0.95;;;;;;;;;;4954445;29;20031;-71
2022/09/02 14:49:31;;;;;;;10.02;1.10;;;;;;;;;;4937821;29;20031;-70
2022/09/02 14:51:58;;;;;;;5.97;1.38;;;;;;;;;;4953917;29;20038;-71
2022/09/02 14:54:40;;;;;;;2.83;1.00;;;;;;;;;;4952299;28;20023;-70
2022/09/02 14:57:19;;;;;;;7.57;1.08;;;;;;;;;;4952269;29;20068;-70
2022/09/02 14:59:45;;;;;;;13.32;1.63;;;;;;;;;;4952511;29;20027;-70